Brattleboro, VT (05301)

11:46 AM EDT on May 03, 2015 (GMT -0400)
VTLonardo | | Change Station
CLOSE
Current Station
Personal Weather Station
Location: Brattleboro, VT
Elevation: 398 ft
Nearby Weather Stations

Elev 398 ft 42.84 °N, 72.56 °W | Updated 0 second ago

Partly Cloudy
Partly Cloudy
73.4 °F
Feels Like 77 °F
N
1.6
Wind Variable Wind from SE
Gusts 4.5 mph

Today
High -- | Low -- °F
--% Chance of Precip.
Yesterday
High -- | Low -- °F
Precip. -- in
5:42 AM 7:53 PM
Full, 100% visible
Pressure 30.05 in
Visibility 10.0 miles
Clouds Clear
Heat Index 77 °F
Dew Point 45 °F
Humidity 36%
Rainfall 0.00 in
Snow Depth Not available.
UV 0.0 out of 12
Pollen 11.30 out of 12
Air Quality Not available.
Flu Activity Regional
METAR KEEN 031535Z AUTO 17003KT 10SM CLR 22/04 A3005 RMK AO1

More Conditions Fewer Conditions

Pressure 30.05 in
Visibility 10.0 miles
Clouds Clear
Heat Index 77 °F
Dew Point 45 °F
Humidity 36%
Rainfall 0.00 in
Snow Depth Not available.
UV 0.0 out of 12
Pollen 11.30 out of 12
Air Quality Not available.
Flu Activity Regional
METAR KEEN 031535Z AUTO 17003KT 10SM CLR 22/04 A3005 RMK AO1

More Conditions Fewer Conditions

Nepal has a long way to go to dig out and rebuild from a devastating earthquake. We have teamed up with several charities and organizations to make contributing to the relief effort as easy as possible.
How you can help: Portlight Strategies | Red Cross

10-Day Weather Forecast

Almanac

Astronomy

May. 03, 2015 Rise Set
Actual Time
Civil Twilight
Nautical Twilight
Astronomical Twilight
Moon
Length of Visible Light
Length of Day
Tomorrow will be .
, % of the Moon is Illuminated

Today's Extremes

State Highs State Lows

Community

WunderPhotos

Upload Photos

1,818,256 photos uploaded!

WunderBlogs® & News

Nearby

Air Quality

  Air Quality AQ Index Pollutant
Not available.

Snow Depth

Station Depth Elevation

Earthquake Activity

City Distance Mag. Time & Date
Minimum magnitude displayed is 2.5.

Coastal Water Temperatures

Place Temperature

Stations

Nearby Weather Stations

Station Location Temp. Windchill Dew Point Humidity Wind Precip. Elev Updated Type